New England, North Dakota
Current Conditions -  °F | °C
As of 8:03 AM on Thursday 30 Oct 2014 (Local Time) from KDIK Reporting Station
Haze Haze  
Wind Chill: 28°   Ceiling: 1700
Heat Index: 35°   Visibility: 3mi
Dew Point: 32°   Wind: 9mph
Humidity: 89%   Direction: 340°NNW
Pressure: 30.27"   Gusts: NA
Location:  46.54°N, 102.87°W
Report Text: KDIK 301403Z AUTO 34008KT 3SM BR SCT005 OVC017 02/00 A3027 RMK AO2 T00170000
Loading
Personal Weather Stations






























Interactive Weather Map
Tropical Storm Tracking
New forecast layout! Learn more

10-Day Weather Forecast

Advertisements
Track Severe Weather on mobile